Time;durP1;ratioP1;P1;durP2;ratioP2;P2;SDS_P1;SDS_P2;PMS_P1;PMS_P2;Temp;Humidity;BMP_temperature;BMP_pressure;BME280_temperature;BME280_humidity;BME280_pressure;Samples;Min_cycle;Max_cycle;Signal;HPM_P1;HPM_P2
2021/11/29 00:01:31;;;;;;;6.33;5.93;;;;;;;1.25;90.42;93789.25;5011874;28;20284;-73
2021/11/29 00:03:59;;;;;;;4.70;4.40;;;;;;;1.24;89.98;93787.66;5021427;28;20242;-73
2021/11/29 00:06:27;;;;;;;4.93;4.63;;;;;;;1.25;89.70;93790.06;5014727;28;20252;-73
2021/11/29 00:08:55;;;;;;;4.17;3.90;;;;;;;1.28;90.33;93787.16;5014689;28;20546;-72
2021/11/29 00:11:23;;;;;;;6.17;5.77;;;;;;;1.26;90.44;93794.28;5017766;28;20226;-72
2021/11/29 00:13:52;;;;;;;6.43;5.93;;;;;;;1.23;90.11;93786.03;4996327;28;20258;-73
2021/11/29 00:16:21;;;;;;;5.73;5.23;;;;;;;1.22;90.63;93795.63;5009027;28;20284;-73
2021/11/29 00:18:50;;;;;;;6.13;5.67;;;;;;;1.10;90.34;93797.81;5007554;28;20690;-73
2021/11/29 00:21:18;;;;;;;6.13;5.70;;;;;;;1.03;90.03;93801.28;5017394;28;20218;-73
2021/11/29 00:23:46;;;;;;;5.27;4.97;;;;;;;0.84;89.65;93798.13;5019607;28;20726;-73
2021/11/29 00:26:15;;;;;;;4.87;4.47;;;;;;;0.77;89.78;93807.56;5020921;28;20581;-73
2021/11/29 00:28:44;;;;;;;5.37;4.97;;;;;;;0.68;89.23;93805.97;5007468;28;20236;-72
2021/11/29 00:31:13;;;;;;;4.27;3.97;;;;;;;0.64;89.19;93817.69;5007801;28;22902;-73
2021/11/29 00:33:43;;;;;;;6.67;6.17;;;;;;;0.54;89.66;93822.25;5007159;28;20474;-71
2021/11/29 00:36:14;;;;;;;7.80;4.90;;;;;;;0.54;89.74;93819.66;5007273;28;20302;-73
2021/11/29 00:38:43;;;;;;;4.40;4.07;;;;;;;0.43;90.53;93823.44;4996202;28;20472;-73
2021/11/29 00:41:12;;;;;;;5.83;5.43;;;;;;;0.43;90.30;93818.25;5015782;28;20470;-72
2021/11/29 00:43:41;;;;;;;5.70;5.30;;;;;;;0.45;90.77;93823.25;5017623;28;20451;-73
2021/11/29 00:46:09;;;;;;;6.60;5.90;;;;;;;0.51;90.36;93820.81;5022142;28;20483;-73
2021/11/29 00:48:38;;;;;;;5.60;5.10;;;;;;;0.60;89.70;93825.97;5017303;28;20565;-72
2021/11/29 00:51:08;;;;;;;6.13;5.47;;;;;;;0.65;89.81;93834.88;5007737;28;20458;-72
2021/11/29 00:53:35;;;;;;;6.13;5.63;;;;;;;0.72;90.21;93835.81;5009795;28;20614;-71
2021/11/29 00:56:04;;;;;;;7.47;6.87;;;;;;;0.77;89.97;93843.91;5007166;28;20468;-72
2021/11/29 00:58:33;;;;;;;6.67;6.20;;;;;;;0.80;89.94;93842.75;5009581;28;20474;-73
2021/11/29 01:01:01;;;;;;;7.73;7.13;;;;;;;0.81;90.72;93842.59;5023554;28;20482;-73
2021/11/29 01:03:30;;;;;;;7.40;6.67;;;;;;;0.84;91.04;93850.06;5019792;28;20238;-73
2021/11/29 01:05:58;;;;;;;7.33;5.50;;;;;;;0.84;89.96;93839.66;5016831;28;20309;-72
2021/11/29 01:08:27;;;;;;;5.70;5.20;;;;;;;0.84;90.19;93839.66;5006046;28;20636;-72
2021/11/29 01:10:56;;;;;;;5.10;4.70;;;;;;;0.84;90.37;93844.84;5019399;28;20239;-72
2021/11/29 01:13:24;;;;;;;5.53;5.03;;;;;;;0.88;91.00;93849.69;4999247;28;20285;-73
2021/11/29 01:15:52;;;;;;;5.97;5.47;;;;;;;0.90;90.68;93858.94;5017798;28;20310;-72
2021/11/29 01:18:21;;;;;;;5.03;4.67;;;;;;;0.91;90.02;93864.94;5018838;28;20231;-72
2021/11/29 01:20:49;;;;;;;6.80;6.10;;;;;;;0.80;90.19;93866.94;5018369;28;20792;-72
2021/11/29 01:23:19;;;;;;;6.43;5.93;;;;;;;0.46;89.87;93864.63;5001262;28;20458;-72
2021/11/29 01:25:50;;;;;;;5.57;5.17;;;;;;;0.33;90.82;93866.13;5019486;28;20595;-72
2021/11/29 01:28:18;;;;;;;5.80;5.20;;;;;;;0.45;90.49;93869.97;4998718;28;21001;-72
2021/11/29 01:30:46;;;;;;;5.00;4.60;;;;;;;0.50;90.02;93867.69;5016795;28;25162;-72
2021/11/29 01:33:15;;;;;;;5.00;4.63;;;;;;;0.50;90.42;93867.69;5022961;28;20230;-72
2021/11/29 01:35:43;;;;;;;6.07;5.60;;;;;;;0.33;89.48;93882.47;5014961;28;20993;-72
2021/11/29 01:38:11;;;;;;;6.37;5.87;;;;;;;0.34;89.85;93872.91;5018864;28;20482;-73
2021/11/29 01:40:39;;;;;;;5.87;5.37;;;;;;;0.27;90.44;93873.59;4993057;28;20532;-73
2021/11/29 01:43:12;;;;;;;6.67;6.17;;;;;;;0.27;89.72;93868.41;5010131;28;20213;-73
2021/11/29 01:45:42;;;;;;;8.63;6.80;;;;;;;0.32;89.88;93869.69;5018081;28;20532;-72
2021/11/29 01:48:12;;;;;;;6.57;6.00;;;;;;;0.17;90.73;93878.13;5003573;28;20474;-72
2021/11/29 01:50:42;;;;;;;8.73;7.67;;;;;;;0.15;92.15;93874.91;5016012;28;20548;-72
2021/11/29 01:53:11;;;;;;;7.10;6.53;;;;;;;0.04;92.95;93877.84;5010978;28;21130;-72
2021/11/29 01:55:42;;;;;;;8.80;8.10;;;;;;;0.21;93.94;93884.63;5018600;28;20549;-73
2021/11/29 01:58:11;;;;;;;9.80;8.90;;;;;;;0.22;93.41;93883.66;5018190;28;20467;-72
2021/11/29 02:00:44;;;;;;;10.57;9.67;;;;;;;0.31;92.81;93888.81;5022644;28;20589;-72
2021/11/29 02:03:13;;;;;;;10.63;9.57;;;;;;;0.37;93.20;93883.78;4998218;28;21086;-72
2021/11/29 02:05:42;;;;;;;11.10;10.00;;;;;;;0.40;93.71;93878.25;5011187;28;20552;-73
2021/11/29 02:08:11;;;;;;;9.50;8.77;;;;;;;0.51;93.37;93890.06;5015352;28;20591;-72
2021/11/29 02:10:39;;;;;;;9.50;8.70;;;;;;;0.48;93.00;93885.22;5007955;28;20917;-71
2021/11/29 02:13:07;;;;;;;8.00;7.30;;;;;;;0.46;92.04;93890.59;4998940;28;20462;-73
2021/11/29 02:15:38;;;;;;;8.03;7.37;;;;;;;0.50;92.01;93889.25;5015404;28;20881;-72
2021/11/29 02:18:07;;;;;;;8.57;7.73;;;;;;;0.47;92.19;93889.59;5022743;28;21045;-72
2021/11/29 02:20:38;;;;;;;12.90;9.53;;;;;;;0.48;92.71;93895.59;4994637;28;20917;-72
2021/11/29 02:23:07;;;;;;;9.23;8.43;;;;;;;0.51;92.03;93892.66;5006291;28;20532;-73
2021/11/29 02:25:35;;;;;;;9.30;8.50;;;;;;;0.43;92.46;93897.88;5015537;28;20830;-72
2021/11/29 02:28:04;;;;;;;11.47;9.73;;;;;;;0.44;92.43;93899.47;5014177;28;20471;-73
2021/11/29 02:30:32;;;;;;;9.17;8.47;;;;;;;0.53;92.04;93898.50;5012005;28;21077;-72
2021/11/29 02:33:00;;;;;;;10.10;9.10;;;;;;;0.59;92.09;93905.63;5007882;28;20454;-73
2021/11/29 02:35:28;;;;;;;11.23;10.17;;;;;;;0.61;92.05;93895.88;5012388;28;20606;-73
2021/11/29 02:37:58;;;;;;;12.10;8.67;;;;;;;0.63;91.45;93904.31;5012876;28;20463;-73
2021/11/29 02:40:26;;;;;;;9.13;8.33;;;;;;;0.63;92.10;93903.50;5012067;28;20241;-73
2021/11/29 02:42:54;;;;;;;8.10;7.50;;;;;;;0.63;90.96;93893.09;5023340;28;20766;-72
2021/11/29 02:45:23;;;;;;;7.97;7.30;;;;;;;0.63;91.73;93903.50;5023542;28;20524;-72
2021/11/29 02:47:51;;;;;;;7.80;7.20;;;;;;;0.60;91.21;93898.66;5004326;28;20521;-72
2021/11/29 02:50:19;;;;;;;7.67;6.97;;;;;;;0.57;90.63;93910.19;5011944;28;20295;-71
2021/11/29 02:52:48;;;;;;;9.20;8.40;;;;;;;0.44;91.25;93900.28;5003994;28;20308;-72
2021/11/29 02:55:18;;;;;;;6.87;6.30;;;;;;;0.47;91.32;93904.38;5010556;28;20855;-73
2021/11/29 02:57:46;;;;;;;8.87;8.17;;;;;;;0.34;91.30;93904.84;5007141;28;20224;-72
2021/11/29 03:00:15;;;;;;;8.50;7.90;;;;;;;0.20;91.04;93916.72;5006377;28;20543;-73
2021/11/29 03:02:43;;;;;;;8.40;7.50;;;;;;;0.11;90.88;93922.09;5017642;28;20216;-72
2021/11/29 03:05:12;;;;;;;8.17;7.47;;;;;;;-0.04;91.80;93921.91;4996036;28;20554;-73
2021/11/29 03:07:40;;;;;;;9.47;8.67;;;;;;;0.12;91.80;93921.91;5013665;28;20485;-72
2021/11/29 03:10:09;;;;;;;8.30;7.57;;;;;;;0.20;90.98;93923.69;5018878;28;20485;-72
2021/11/29 03:12:38;;;;;;;8.40;7.80;;;;;;;0.05;90.26;93933.91;5004398;28;20536;-72
2021/11/29 03:15:07;;;;;;;9.47;8.57;;;;;;;0.03;91.16;93932.44;5014184;28;21168;-72
2021/11/29 03:17:35;;;;;;;8.97;8.10;;;;;;;-0.03;90.90;93933.91;5017299;28;20454;-72
2021/11/29 03:20:04;;;;;;;9.63;8.77;;;;;;;-0.13;90.27;93930.66;5010432;28;20482;-72
2021/11/29 03:22:33;;;;;;;7.13;6.63;;;;;;;-0.24;89.74;93936.16;5016525;28;20505;-72
2021/11/29 03:25:09;;;;;;;8.67;7.33;;;;;;;-0.47;88.88;93941.94;5013549;28;20880;-72
2021/11/29 03:27:39;;;;;;;8.37;6.07;;;;;;;-0.50;89.25;93942.28;5014410;28;20510;-72
2021/11/29 03:30:09;;;;;;;7.07;6.47;;;;;;;-0.53;89.71;93942.59;5024448;28;20989;-72
2021/11/29 03:32:38;;;;;;;6.87;6.27;;;;;;;-0.45;90.09;93949.59;5004889;28;20517;-72
2021/11/29 03:35:09;;;;;;;8.17;7.37;;;;;;;-0.43;90.13;93945.84;5002105;28;20467;-72
2021/11/29 03:37:37;;;;;;;9.43;8.63;;;;;;;-0.40;90.18;93945.53;5016926;28;20477;-72
2021/11/29 03:40:07;;;;;;;10.37;7.87;;;;;;;-0.41;90.41;93950.88;5020432;28;21529;-72
2021/11/29 03:42:35;;;;;;;7.87;7.17;;;;;;;-0.32;90.87;93950.72;4998329;28;20792;-72
2021/11/29 03:45:06;;;;;;;7.63;7.03;;;;;;;-0.21;90.55;93957.38;5010021;28;20860;-72
2021/11/29 03:47:33;;;;;;;7.03;6.53;;;;;;;-0.15;90.11;93961.13;4999643;28;20466;-72
2021/11/29 03:50:02;;;;;;;6.20;5.57;;;;;;;-0.13;90.41;93964.38;5009260;28;20546;-72
2021/11/29 03:52:30;;;;;;;8.37;7.47;;;;;;;-0.18;90.60;93974.38;5012738;28;20461;-72
2021/11/29 03:54:58;;;;;;;9.93;8.90;;;;;;;-0.16;90.27;93970.69;5009909;28;20467;-72
2021/11/29 03:57:26;;;;;;;6.93;6.37;;;;;;;-0.12;89.96;93978.94;5004280;28;20727;-72
2021/11/29 03:59:54;;;;;;;6.13;5.53;;;;;;;-0.05;90.35;93972.16;5019306;28;20442;-72
2021/11/29 04:02:24;;;;;;;7.97;7.43;;;;;;;-0.03;90.36;93980.56;5014772;28;20962;-72
2021/11/29 04:04:52;;;;;;;8.43;7.83;;;;;;;-0.09;90.00;93983.78;5016980;28;21116;-72
2021/11/29 04:07:20;;;;;;;8.10;7.30;;;;;;;-0.05;90.00;93987.72;5024120;28;20490;-72
2021/11/29 04:09:49;;;;;;;11.03;6.80;;;;;;;-0.01;90.37;93994.19;5009305;28;20482;-72
2021/11/29 04:12:17;;;;;;;7.80;7.17;;;;;;;0.03;90.89;93994.69;5010258;28;20546;-72
2021/11/29 04:14:45;;;;;;;9.60;7.97;;;;;;;0.04;91.44;93994.53;5020092;28;20439;-72
2021/11/29 04:17:13;;;;;;;8.33;7.67;;;;;;;0.12;90.77;93994.53;5001205;28;20551;-72
2021/11/29 04:19:44;;;;;;;8.10;7.33;;;;;;;0.19;91.13;93992.91;5016735;28;20459;-72
2021/11/29 04:22:17;;;;;;;8.97;8.13;;;;;;;0.19;90.86;94000.69;5020353;28;20900;-72
2021/11/29 04:24:46;;;;;;;9.67;8.80;;;;;;;0.22;91.15;93990.00;5018280;28;20463;-72
2021/11/29 04:27:15;;;;;;;6.53;6.10;;;;;;;0.18;90.05;94009.47;4998996;28;20482;-73
2021/11/29 04:29:46;;;;;;;7.17;6.53;;;;;;;0.19;90.55;94005.91;5013645;28;20458;-72
2021/11/29 04:32:14;;;;;;;10.53;7.97;;;;;;;0.08;89.91;94003.59;5000712;28;20531;-72
2021/11/29 04:34:43;;;;;;;8.53;7.93;;;;;;;0.01;89.97;94002.63;5018526;28;20544;-72
2021/11/29 04:37:11;;;;;;;7.43;6.73;;;;;;;-0.02;90.28;94008.13;5005108;28;20972;-72
2021/11/29 04:39:39;;;;;;;9.67;8.87;;;;;;;-0.20;90.93;94020.41;5016539;28;20463;-72
2021/11/29 04:42:08;;;;;;;8.30;7.67;;;;;;;-0.10;90.92;94031.44;5012833;28;20483;-72
2021/11/29 04:44:35;;;;;;;8.97;8.07;;;;;;;-0.04;91.31;94036.00;5016279;28;20486;-72
2021/11/29 04:47:05;;;;;;;8.13;7.43;;;;;;;0.07;90.93;94022.72;5011083;28;20537;-72
2021/11/29 04:49:33;;;;;;;9.80;9.00;;;;;;;0.14;91.04;94022.91;5012621;28;21022;-72
2021/11/29 04:52:03;;;;;;;9.30;8.50;;;;;;;0.16;91.03;94029.53;5021168;28;20459;-72
2021/11/29 04:54:31;;;;;;;9.20;7.80;;;;;;;0.24;91.03;94045.13;5024407;28;20542;-72
2021/11/29 04:56:59;;;;;;;7.47;6.87;;;;;;;0.31;91.18;94034.91;4997816;28;20479;-72
2021/11/29 04:59:27;;;;;;;8.90;8.13;;;;;;;0.36;90.79;94042.19;5010950;28;21089;-72
2021/11/29 05:01:56;;;;;;;9.70;8.70;;;;;;;0.40;91.29;94043.50;5018599;28;20500;-72
2021/11/29 05:04:24;;;;;;;8.37;7.57;;;;;;;0.45;91.69;94046.41;4999315;28;20232;-72
2021/11/29 05:06:52;;;;;;;8.93;8.20;;;;;;;0.48;91.05;94049.50;5002258;28;20494;-72
2021/11/29 05:09:22;;;;;;;7.10;6.43;;;;;;;0.51;91.29;94061.34;5015372;28;20815;-72
2021/11/29 05:11:50;;;;;;;9.03;8.23;;;;;;;0.59;91.14;94050.97;5021825;28;20474;-72
2021/11/29 05:14:19;;;;;;;8.57;7.87;;;;;;;0.57;90.57;94060.72;5017210;28;20614;-72
2021/11/29 05:16:47;;;;;;;7.97;7.27;;;;;;;0.56;90.73;94065.09;5014318;28;20235;-72
2021/11/29 05:19:16;;;;;;;7.00;6.40;;;;;;;0.65;90.93;94068.50;5015492;28;20569;-72
2021/11/29 05:21:44;;;;;;;10.00;9.30;;;;;;;0.63;91.10;94070.44;5011584;28;20474;-72
2021/11/29 05:24:13;;;;;;;8.13;6.90;;;;;;;0.47;90.36;94076.44;5018388;28;21733;-72
2021/11/29 05:26:47;;;;;;;7.27;6.67;;;;;;;0.38;91.29;94076.59;5021462;28;20492;-72
2021/11/29 05:29:15;;;;;;;8.80;8.03;;;;;;;0.27;91.90;94080.28;5015236;28;20228;-72
2021/11/29 05:31:44;;;;;;;9.33;8.37;;;;;;;0.26;92.41;94078.66;5018190;28;20462;-72
2021/11/29 05:34:13;;;;;;;8.53;7.83;;;;;;;0.44;92.25;94086.31;5015703;28;20447;-72
2021/11/29 05:36:45;;;;;;;9.50;8.30;;;;;;;0.37;92.01;94095.75;5015495;28;20886;-72
2021/11/29 05:39:15;;;;;;;9.60;8.73;;;;;;;0.30;92.18;94097.34;5012794;28;20935;-72
2021/11/29 05:41:43;;;;;;;10.60;9.67;;;;;;;0.25;91.85;94103.81;5004637;28;20481;-72
2021/11/29 05:44:14;;;;;;;10.63;9.43;;;;;;;0.18;91.73;94109.78;5018410;28;20510;-72
2021/11/29 05:46:43;;;;;;;9.10;8.27;;;;;;;0.17;92.91;94111.56;5014121;28;20451;-72
2021/11/29 05:49:12;;;;;;;11.30;9.67;;;;;;;0.28;92.98;94106.09;5010463;28;20489;-72
2021/11/29 05:51:40;;;;;;;10.43;8.93;;;;;;;0.37;92.32;94119.09;5014008;28;21140;-72
2021/11/29 05:54:08;;;;;;;11.17;10.07;;;;;;;0.23;92.87;94121.31;5019968;28;21045;-71
2021/11/29 05:56:36;;;;;;;10.27;9.20;;;;;;;0.20;92.29;94126.81;5016024;28;20943;-72
2021/11/29 05:59:04;;;;;;;11.43;10.33;;;;;;;0.20;92.98;94142.41;5013538;28;20455;-72
2021/11/29 06:01:34;;;;;;;10.47;9.10;;;;;;;0.11;92.33;94142.53;5014975;28;20502;-72
2021/11/29 06:04:03;;;;;;;7.67;6.97;;;;;;;-0.11;92.19;94144.69;5011711;28;20455;-72
2021/11/29 06:06:31;;;;;;;9.70;8.83;;;;;;;-0.01;92.33;94144.56;5011340;28;20975;-72
2021/11/29 06:09:00;;;;;;;9.67;8.77;;;;;;;0.13;92.41;94154.38;5019328;28;20471;-72
2021/11/29 06:11:28;;;;;;;9.17;8.37;;;;;;;-0.04;92.11;94150.09;5012896;28;20559;-72
2021/11/29 06:13:56;;;;;;;10.77;8.20;;;;;;;-0.21;92.57;94158.75;5002699;28;20462;-72
2021/11/29 06:16:24;;;;;;;11.10;10.00;;;;;;;0.01;93.25;94163.41;5019221;28;20526;-72
2021/11/29 06:18:54;;;;;;;8.40;7.57;;;;;;;-0.09;92.10;94162.69;5008337;28;20486;-73
2021/11/29 06:21:22;;;;;;;9.47;8.40;;;;;;;-0.14;92.84;94159.78;5022494;28;20463;-72
2021/11/29 06:23:50;;;;;;;8.13;7.40;;;;;;;0.10;92.05;94172.84;5010309;28;21026;-70
2021/11/29 06:26:19;;;;;;;8.53;7.70;;;;;;;0.04;92.01;94168.28;5012266;28;20521;-69
2021/11/29 06:28:47;;;;;;;8.33;7.60;;;;;;;0.11;91.27;94184.03;5008640;28;20887;-70
2021/11/29 06:31:16;;;;;;;8.33;7.53;;;;;;;-0.05;91.97;94184.75;5010495;28;20513;-69
2021/11/29 06:33:44;;;;;;;8.67;7.80;;;;;;;0.06;90.93;94192.25;4995175;28;20537;-70
2021/11/29 06:36:14;;;;;;;8.50;7.80;;;;;;;0.11;91.06;94199.59;5007232;28;20471;-70
2021/11/29 06:38:42;;;;;;;8.30;6.90;;;;;;;0.21;90.77;94198.50;5012839;28;20550;-70
2021/11/29 06:41:11;;;;;;;7.07;6.40;;;;;;;0.10;90.84;94203.97;5011980;28;20440;-70
2021/11/29 06:43:39;;;;;;;7.00;6.40;;;;;;;0.14;90.08;94213.03;4991097;28;20455;-70
2021/11/29 06:46:07;;;;;;;9.30;8.20;;;;;;;-0.07;90.81;94212.63;5015838;28;20458;-70
2021/11/29 06:48:36;;;;;;;7.27;6.63;;;;;;;0.12;90.56;94217.59;4994645;28;20469;-70
2021/11/29 06:51:05;;;;;;;9.00;7.70;;;;;;;0.06;90.35;94220.78;5010349;28;20541;-69
2021/11/29 06:53:35;;;;;;;6.77;6.17;;;;;;;0.19;89.96;94213.41;5021294;28;20493;-70
2021/11/29 06:56:04;;;;;;;8.93;8.10;;;;;;;0.10;89.97;94229.91;5009939;28;20496;-69
2021/11/29 06:58:33;;;;;;;7.77;7.07;;;;;;;-0.02;90.42;94228.53;5012527;28;20471;-70
2021/11/29 07:01:01;;;;;;;8.97;8.17;;;;;;;0.23;90.70;94224.28;4990655;28;20467;-70
2021/11/29 07:03:30;;;;;;;8.03;7.23;;;;;;;0.34;90.53;94241.34;5024492;28;20505;-69
2021/11/29 07:05:58;;;;;;;8.53;7.87;;;;;;;0.22;90.05;94243.41;5017625;28;21074;-69
2021/11/29 07:08:26;;;;;;;6.60;6.00;;;;;;;0.24;90.62;94250.06;5019100;28;20885;-69
2021/11/29 07:10:57;;;;;;;8.13;7.43;;;;;;;0.32;90.59;94248.47;5024737;28;20800;-70
2021/11/29 07:13:26;;;;;;;8.77;8.03;;;;;;;0.30;90.32;94255.59;5024535;28;20872;-70
2021/11/29 07:15:55;;;;;;;8.00;7.23;;;;;;;0.39;91.23;94265.84;5013297;28;20447;-69
2021/11/29 07:18:28;;;;;;;7.17;6.57;;;;;;;0.43;90.01;94268.94;5022575;28;20542;-69
2021/11/29 07:20:57;;;;;;;6.93;6.23;;;;;;;0.42;90.42;94270.72;5006100;28;20478;-69
2021/11/29 07:23:25;;;;;;;9.20;7.10;;;;;;;0.49;89.86;94271.72;4988255;28;20562;-70
2021/11/29 07:25:55;;;;;;;7.13;6.50;;;;;;;0.52;89.90;94283.56;5010189;28;20558;-69
2021/11/29 07:28:24;;;;;;;9.93;8.13;;;;;;;0.54;89.87;94285.03;5013526;28;20514;-70
2021/11/29 07:30:52;;;;;;;8.97;8.07;;;;;;;0.40;90.37;94288.22;4995069;28;20712;-70
2021/11/29 07:33:20;;;;;;;7.80;7.10;;;;;;;0.39;89.71;94291.00;5013556;28;20463;-69
2021/11/29 07:35:48;;;;;;;9.33;8.63;;;;;;;0.42;89.78;94286.28;5013075;28;21043;-70
2021/11/29 07:38:17;;;;;;;10.10;8.20;;;;;;;0.45;89.39;94300.72;5004893;28;20475;-69
2021/11/29 07:40:45;;;;;;;11.90;10.23;;;;;;;0.46;89.58;94307.56;5003033;28;20546;-69
2021/11/29 07:43:15;;;;;;;8.67;7.87;;;;;;;0.63;89.34;94298.84;5015087;28;20459;-69
2021/11/29 07:45:43;;;;;;;7.63;6.93;;;;;;;0.64;89.32;94315.25;5023800;28;20462;-70
2021/11/29 07:48:12;;;;;;;8.10;7.27;;;;;;;0.64;88.62;94312.66;5009857;28;20459;-70
2021/11/29 07:50:40;;;;;;;8.03;7.37;;;;;;;0.57;89.29;94317.66;5016304;28;20471;-70
2021/11/29 07:53:08;;;;;;;7.67;6.97;;;;;;;0.54;88.84;94315.38;5020578;28;20506;-70
2021/11/29 07:55:37;;;;;;;9.43;8.27;;;;;;;0.54;89.29;94320.56;4998978;28;20470;-70
2021/11/29 07:58:05;;;;;;;8.27;7.43;;;;;;;0.58;89.45;94321.88;5019735;28;20789;-70
2021/11/29 08:00:37;;;;;;;10.93;9.10;;;;;;;0.38;89.93;94317.91;5010062;28;20502;-69
2021/11/29 08:03:07;;;;;;;8.60;7.80;;;;;;;0.63;88.74;94324.00;4993118;28;20521;-69
2021/11/29 08:05:37;;;;;;;8.03;7.33;;;;;;;0.63;89.78;94331.78;5015500;28;20459;-69
2021/11/29 08:08:09;;;;;;;10.10;9.23;;;;;;;0.68;89.15;94329.56;5014640;28;21057;-70
2021/11/29 08:10:38;;;;;;;9.30;8.40;;;;;;;0.60;89.54;94329.50;5026667;28;20494;-69
2021/11/29 08:13:09;;;;;;;13.33;11.77;;;;;;;0.72;89.98;94341.25;5027077;28;20764;-70
2021/11/29 08:15:39;;;;;;;11.03;9.90;;;;;;;0.81;88.40;94341.13;5018973;28;20495;-69
2021/11/29 08:18:08;;;;;;;11.10;10.10;;;;;;;0.70;88.92;94336.22;5013055;28;20778;-69
2021/11/29 08:20:37;;;;;;;9.90;9.00;;;;;;;0.92;88.78;94344.41;5013406;28;20491;-70
2021/11/29 08:23:08;;;;;;;10.03;9.03;;;;;;;0.54;88.97;94339.53;5013930;28;20506;-69
2021/11/29 08:25:39;;;;;;;12.97;10.70;;;;;;;0.57;89.15;94341.03;5015514;28;20518;-69
2021/11/29 08:28:07;;;;;;;10.07;9.07;;;;;;;0.73;88.99;94350.66;5014327;28;20889;-70
2021/11/29 08:30:35;;;;;;;12.87;9.93;;;;;;;0.89;88.24;94349.91;5016853;28;20540;-70
2021/11/29 08:33:05;;;;;;;13.27;9.70;;;;;;;0.96;87.43;94358.69;5021619;28;20840;-69
2021/11/29 08:35:33;;;;;;;10.47;9.27;;;;;;;1.08;88.03;94365.22;5015544;28;20462;-69
2021/11/29 08:38:02;;;;;;;11.90;10.50;;;;;;;1.11;86.58;94360.56;5020750;28;20550;-69
2021/11/29 08:40:34;;;;;;;11.50;10.53;;;;;;;0.99;86.49;94366.16;5025138;28;20477;-69
2021/11/29 08:43:04;;;;;;;13.23;11.80;;;;;;;1.12;86.23;94366.56;5008843;28;20498;-70
2021/11/29 08:45:33;;;;;;;12.47;10.30;;;;;;;1.13;85.91;94373.38;5010199;28;20537;-70
2021/11/29 08:48:03;;;;;;;9.30;8.43;;;;;;;1.23;85.27;94379.25;5015646;28;21029;-70
2021/11/29 08:50:34;;;;;;;12.57;10.57;;;;;;;1.11;86.04;94380.53;5017978;28;20455;-69
2021/11/29 08:53:11;;;;;;;11.37;10.27;;;;;;;0.88;86.17;94384.66;5017393;28;20503;-70
2021/11/29 08:55:39;;;;;;;11.10;9.17;;;;;;;1.10;85.93;94389.28;5007083;28;20458;-69
2021/11/29 08:58:09;;;;;;;12.43;11.17;;;;;;;1.30;85.19;94392.44;5015450;28;20518;-70
2021/11/29 09:00:41;;;;;;;9.83;8.80;;;;;;;1.30;84.94;94402.81;5000232;28;20474;-70
2021/11/29 09:03:09;;;;;;;15.27;9.50;;;;;;;1.13;85.16;94399.34;5008152;28;20463;-70
2021/11/29 09:05:40;;;;;;;11.70;10.60;;;;;;;1.14;85.38;94403.56;4990940;28;20276;-70
2021/11/29 09:08:11;;;;;;;10.37;9.37;;;;;;;1.49;84.80;94406.94;5010584;28;20221;-70
2021/11/29 09:10:40;;;;;;;10.77;9.67;;;;;;;1.40;83.95;94417.31;5006021;28;20232;-70
2021/11/29 09:13:30;;;;;;;10.53;9.53;;;;;;;1.59;83.88;94418.00;4993571;28;20715;-70
2021/11/29 09:16:00;;;;;;;11.77;10.67;;;;;;;1.95;83.56;94424.56;4989419;28;20905;-70
2021/11/29 09:18:30;;;;;;;10.90;9.80;;;;;;;1.89;83.63;94430.38;5021468;28;20265;-70
2021/11/29 09:20:59;;;;;;;11.43;9.43;;;;;;;1.83;82.34;94425.00;5012870;28;20314;-70
2021/11/29 09:23:28;;;;;;;12.53;11.30;;;;;;;1.93;82.59;94431.72;5022864;28;20467;-70
2021/11/29 09:25:57;;;;;;;10.73;9.63;;;;;;;1.89;82.57;94425.19;5012975;28;20235;-70
2021/11/29 09:28:25;;;;;;;11.33;10.07;;;;;;;1.76;83.53;94431.84;5017239;28;20222;-70
2021/11/29 09:30:54;;;;;;;13.50;11.70;;;;;;;1.78;83.92;94440.28;5026463;28;20517;-68
2021/11/29 09:33:23;;;;;;;12.23;11.03;;;;;;;1.68;85.01;94441.25;5027179;28;20558;-70
2021/11/29 09:35:51;;;;;;;11.57;10.50;;;;;;;1.67;85.14;94444.03;4995572;28;20496;-70
2021/11/29 09:38:21;;;;;;;13.43;12.23;;;;;;;1.83;84.83;94449.25;5021248;28;20244;-70
2021/11/29 09:40:49;;;;;;;13.40;10.47;;;;;;;1.73;86.24;94443.34;5018665;28;20696;-70
2021/11/29 09:43:19;;;;;;;12.57;11.17;;;;;;;1.55;86.12;94455.66;5011411;28;20705;-69
2021/11/29 09:45:49;;;;;;;14.80;12.10;;;;;;;1.20;86.83;94452.31;5018104;28;20221;-70
2021/11/29 09:48:19;;;;;;;13.23;11.87;;;;;;;1.16;89.36;94452.78;5026343;28;20295;-70
2021/11/29 09:50:49;;;;;;;17.47;13.90;;;;;;;1.21;90.19;94459.16;5014625;28;20328;-70
2021/11/29 09:53:19;;;;;;;14.13;12.57;;;;;;;1.08;89.66;94454.38;5015280;28;20248;-70
2021/11/29 09:55:49;;;;;;;14.27;12.87;;;;;;;1.00;90.31;94462.13;4987967;28;20458;-69
2021/11/29 09:58:17;;;;;;;13.50;12.03;;;;;;;1.05;89.94;94464.25;5006157;28;20546;-70
2021/11/29 10:00:49;;;;;;;15.50;13.13;;;;;;;1.03;90.29;94466.22;5017294;28;20261;-70
2021/11/29 10:03:18;;;;;;;13.90;12.47;;;;;;;1.04;90.06;94466.06;5009198;28;20493;-69
2021/11/29 10:05:51;;;;;;;15.10;12.47;;;;;;;1.11;89.61;94468.84;5012476;28;20488;-70
2021/11/29 10:08:24;;;;;;;13.80;12.50;;;;;;;1.00;90.01;94477.69;5006031;28;20597;-70
2021/11/29 10:11:17;;;;;;;13.87;12.53;;;;;;;1.02;90.36;94469.78;5008609;28;20471;-69
2021/11/29 10:13:47;;;;;;;12.37;11.17;;;;;;;1.09;90.32;94476.78;5009104;28;20522;-70
2021/11/29 10:16:33;;;;;;;14.50;12.93;;;;;;;1.11;90.38;94471.44;5011844;28;20481;-70
2021/11/29 10:19:01;;;;;;;12.63;11.30;;;;;;;1.11;90.22;94474.03;5008630;28;20490;-70
2021/11/29 10:21:30;;;;;;;14.30;10.77;;;;;;;0.77;90.98;94481.81;5006404;28;20541;-70
2021/11/29 10:24:05;;;;;;;13.10;11.70;;;;;;;0.71;91.50;94483.22;5006186;28;20882;-70
2021/11/29 10:26:36;;;;;;;11.27;9.70;;;;;;;0.71;91.89;94488.41;5005855;28;20479;-70
2021/11/29 10:29:06;;;;;;;12.20;10.93;;;;;;;0.53;92.52;94490.25;5003933;28;20573;-69
2021/11/29 10:31:38;;;;;;;9.73;8.73;;;;;;;0.77;92.14;94498.19;5006655;28;20540;-69
2021/11/29 10:34:08;;;;;;;9.67;8.63;;;;;;;0.85;90.59;94492.25;5002939;28;20582;-70
2021/11/29 10:36:40;;;;;;;12.20;10.87;;;;;;;0.71;91.09;94498.81;5004527;28;20485;-70
2021/11/29 10:39:12;;;;;;;9.60;8.37;;;;;;;0.71;90.37;94498.81;5005475;28;20537;-69
2021/11/29 10:41:43;;;;;;;10.53;9.50;;;;;;;0.92;89.79;94501.06;5005418;28;20598;-70
2021/11/29 10:44:13;;;;;;;11.67;9.33;;;;;;;1.09;90.01;94500.16;5004929;28;20474;-70
2021/11/29 10:46:43;;;;;;;10.87;9.70;;;;;;;0.87;88.89;94494.69;5002323;28;20462;-69
2021/11/29 10:49:17;;;;;;;11.33;10.10;;;;;;;1.08;88.50;94510.72;5005205;28;20544;-70
2021/11/29 10:51:50;;;;;;;8.77;7.60;;;;;;;1.13;88.39;94503.28;5005710;28;20486;-70
2021/11/29 10:54:20;;;;;;;11.27;10.07;;;;;;;0.91;87.95;94508.97;5005820;28;21519;-69
2021/11/29 10:56:51;;;;;;;9.57;8.67;;;;;;;1.40;87.88;94521.28;5014338;28;20537;-70
2021/11/29 10:59:24;;;;;;;9.77;7.43;;;;;;;1.54;86.51;94508.66;5012853;28;20730;-70
2021/11/29 11:01:55;;;;;;;10.53;8.90;;;;;;;1.47;86.31;94500.69;5021340;28;20966;-69
2021/11/29 11:04:25;;;;;;;8.90;8.07;;;;;;;1.42;86.30;94510.72;5013019;28;20455;-70
2021/11/29 11:06:56;;;;;;;9.53;8.53;;;;;;;1.57;85.24;94510.94;5004937;28;21114;-69
2021/11/29 11:09:28;;;;;;;9.77;7.60;;;;;;;1.81;84.37;94513.59;5003266;28;20570;-70
2021/11/29 11:11:59;;;;;;;14.23;7.80;;;;;;;1.59;84.49;94519.41;4987450;28;20311;-70
2021/11/29 11:14:30;;;;;;;9.90;9.10;;;;;;;1.83;84.66;94511.69;5009433;28;20564;-70
2021/11/29 11:17:19;;;;;;;5.97;5.43;;;;;;;1.93;82.67;94517.56;5018638;28;20555;-69
2021/11/29 11:19:49;;;;;;;9.77;8.40;;;;;;;1.88;82.92;94525.00;5010589;28;20476;-70
2021/11/29 11:22:20;;;;;;;7.03;6.07;;;;;;;1.62;84.63;94529.47;5021396;28;20245;-70
2021/11/29 11:24:52;;;;;;;8.90;8.07;;;;;;;1.36;84.81;94532.94;5028569;28;20499;-70
2021/11/29 11:27:23;;;;;;;8.97;8.17;;;;;;;1.69;85.36;94535.69;5014207;28;21074;-69
2021/11/29 11:29:53;;;;;;;7.93;7.17;;;;;;;2.11;84.30;94534.84;5009464;28;20514;-70
2021/11/29 11:32:26;;;;;;;9.13;8.43;;;;;;;2.27;84.11;94535.66;5009454;28;20492;-70
2021/11/29 11:34:56;;;;;;;8.13;7.43;;;;;;;2.90;82.63;94528.19;4994208;28;20554;-70
2021/11/29 11:37:27;;;;;;;8.10;6.77;;;;;;;3.63;76.61;94528.00;5020085;28;20225;-70
2021/11/29 11:39:56;;;;;;;6.27;5.77;;;;;;;4.24;76.01;94532.44;5026215;28;21042;-70
2021/11/29 11:42:25;;;;;;;8.37;7.17;;;;;;;4.24;75.45;94515.94;5008063;28;20519;-69
2021/11/29 11:44:55;;;;;;;8.33;7.53;;;;;;;3.56;74.98;94522.63;5007805;28;20243;-70
2021/11/29 11:47:27;;;;;;;6.40;6.00;;;;;;;3.24;77.26;94531.38;5009178;28;20321;-70